Breckenridge, Colorado
Current Conditions -  °F | °C
As of 7:55 PM on Friday 19 Dec 2014 (Local Time) from KCCU Reporting Station
Clear Clear  
Wind Chill: -2°   Ceiling: Unl
Heat Index: 14°   Visibility: NA
Dew Point:   Wind: 16mph
Humidity: 79%   Direction: 270°W
Pressure: 30.14"   Gusts: NA
Location:  39.48°N, 106.04°W
Report Text: KCCU 200255Z AUTO 27014KT CLR M10/M13 A3014 RMK AO2 PWINO
Loading
Personal Weather Stations






























Interactive Weather Map New forecast layout! Learn more

10-Day Weather Forecast

Advertisements
Track Severe Weather on mobile